Time;durP1;ratioP1;P1;durP2;ratioP2;P2;SDS_P1;SDS_P2;PMS_P1;PMS_P2;Temp;Humidity;BMP_temperature;BMP_pressure;BME280_temperature;BME280_humidity;BME280_pressure;Samples;Min_cycle;Max_cycle;Signal;HPM_P1;HPM_P2
2023/01/27 00:01:45;;;;;;;29.25;12.50;;;;;;;;;;7387424;19;20009;-72
2023/01/27 00:04:10;;;;;;;30.55;12.00;;;;;;;;;;7385145;19;19998;-72
2023/01/27 00:06:36;;;;;;;33.58;13.45;;;;;;;;;;7387697;19;20003;-72
2023/01/27 00:09:01;;;;;;;33.38;12.80;;;;;;;;;;7385976;19;20306;-72
2023/01/27 00:14:10;;;;;;;31.20;12.27;;;;;;;;;;7386755;19;20027;-72
2023/01/27 00:16:36;;;;;;;27.50;12.95;;;;;;;;;;7385367;19;20003;-72
2023/01/27 00:19:01;;;;;;;26.95;12.15;;;;;;;;;;7385716;19;20002;-73
2023/01/27 00:26:57;;;;;;;31.75;11.65;;;;;;;;;;7387055;19;20014;-72
2023/01/27 00:29:22;;;;;;;32.28;13.02;;;;;;;;;;7389071;19;19995;-71
2023/01/27 00:34:32;;;;;;;28.35;11.68;;;;;;;;;;7393654;19;20014;-71
2023/01/27 00:36:57;;;;;;;32.97;12.32;;;;;;;;;;7394584;19;20007;-71
2023/01/27 00:39:22;;;;;;;26.33;10.65;;;;;;;;;;7391304;19;20535;-72
2023/01/27 00:41:48;;;;;;;30.27;12.63;;;;;;;;;;7393421;19;20041;-72
2023/01/27 00:44:13;;;;;;;29.63;12.07;;;;;;;;;;7393850;19;20003;-72
2023/01/27 00:46:40;;;;;;;31.17;12.18;;;;;;;;;;7394475;19;20005;-72
2023/01/27 00:49:05;;;;;;;30.80;12.32;;;;;;;;;;7394304;19;20116;-72
2023/01/27 00:51:31;;;;;;;30.30;11.85;;;;;;;;;;7393482;19;20074;-72
2023/01/27 00:53:58;;;;;;;30.95;12.30;;;;;;;;;;7392937;19;19994;-72
2023/01/27 00:56:23;;;;;;;35.97;13.30;;;;;;;;;;7393060;19;20083;-72
2023/01/27 00:58:48;;;;;;;30.70;12.02;;;;;;;;;;7389422;19;20006;-72
2023/01/27 01:01:15;;;;;;;30.77;12.43;;;;;;;;;;7393289;19;19998;-72
2023/01/27 01:03:40;;;;;;;27.92;10.80;;;;;;;;;;7388319;19;19999;-72
2023/01/27 01:06:09;;;;;;;33.97;12.68;;;;;;;;;;7391686;19;20035;-71
2023/01/27 01:08:36;;;;;;;29.63;11.05;;;;;;;;;;7392258;19;20337;-71
2023/01/27 01:11:02;;;;;;;33.35;11.80;;;;;;;;;;7390782;19;20023;-72
2023/01/27 01:13:28;;;;;;;30.38;11.15;;;;;;;;;;7392121;19;19990;-72
2023/01/27 01:15:54;;;;;;;31.70;11.38;;;;;;;;;;7391082;19;20349;-72
2023/01/27 01:18:20;;;;;;;30.40;10.40;;;;;;;;;;7391524;19;20007;-71
2023/01/27 01:20:46;;;;;;;30.13;10.10;;;;;;;;;;7393114;19;20406;-72
2023/01/27 01:23:13;;;;;;;26.92;10.85;;;;;;;;;;7392120;19;20062;-72
2023/01/27 01:25:39;;;;;;;28.55;10.05;;;;;;;;;;7393462;19;20495;-71
2023/01/27 01:28:05;;;;;;;22.48;9.05;;;;;;;;;;7391353;19;20006;-72
2023/01/27 01:30:32;;;;;;;21.50;8.07;;;;;;;;;;7392703;19;19994;-72
2023/01/27 01:32:57;;;;;;;24.23;8.45;;;;;;;;;;7391745;19;20036;-72
2023/01/27 01:35:24;;;;;;;16.95;7.60;;;;;;;;;;7392230;19;19995;-72
2023/01/27 01:37:50;;;;;;;20.25;8.27;;;;;;;;;;7391232;19;20440;-72
2023/01/27 01:40:16;;;;;;;20.13;7.88;;;;;;;;;;7391826;19;20003;-72
2023/01/27 01:43:01;;;;;;;19.65;8.32;;;;;;;;;;7390029;19;20028;-71
2023/01/27 01:45:35;;;;;;;25.98;8.20;;;;;;;;;;7392603;19;20476;-71
2023/01/27 01:48:12;;;;;;;26.60;8.63;;;;;;;;;;7389413;19;20019;-71
2023/01/27 01:50:41;;;;;;;28.88;8.23;;;;;;;;;;7393183;19;20018;-71
2023/01/27 01:53:09;;;;;;;38.60;8.63;;;;;;;;;;7391217;19;19999;-71
2023/01/27 01:55:37;;;;;;;23.90;8.05;;;;;;;;;;7391931;19;19995;-71
2023/01/27 01:58:05;;;;;;;28.88;7.65;;;;;;;;;;7391021;19;20009;-72
2023/01/27 02:00:31;;;;;;;32.67;9.23;;;;;;;;;;7391660;19;20002;-71
2023/01/27 02:02:56;;;;;;;39.13;9.63;;;;;;;;;;7393896;19;20015;-71
2023/01/27 02:05:36;;;;;;;26.17;10.25;;;;;;;;;;7391655;19;19995;-71
2023/01/27 02:08:19;;;;;;;23.65;8.75;;;;;;;;;;7390917;19;20016;-70
2023/01/27 02:10:44;;;;;;;20.35;7.95;;;;;;;;;;7391440;19;20010;-71
2023/01/27 02:13:10;;;;;;;18.98;8.07;;;;;;;;;;7390578;19;20027;-71
2023/01/27 02:15:36;;;;;;;18.27;8.38;;;;;;;;;;7389504;19;19990;-73
2023/01/27 02:18:03;;;;;;;18.85;7.85;;;;;;;;;;7390304;19;20002;-72
2023/01/27 02:20:40;;;;;;;24.05;8.80;;;;;;;;;;7391000;19;20004;-71
2023/01/27 02:23:33;;;;;;;16.55;7.22;;;;;;;;;;7388268;19;20003;-71
2023/01/27 02:26:05;;;;;;;15.85;6.95;;;;;;;;;;7390744;19;20002;-71
2023/01/27 02:28:31;;;;;;;14.90;6.90;;;;;;;;;;7389196;19;19998;-71
2023/01/27 02:30:56;;;;;;;16.23;7.88;;;;;;;;;;7390683;19;20042;-72
2023/01/27 02:33:22;;;;;;;15.70;7.70;;;;;;;;;;7390125;19;20403;-72
2023/01/27 02:36:02;;;;;;;15.02;5.95;;;;;;;;;;7390256;19;20084;-72
2023/01/27 02:38:34;;;;;;;21.05;8.00;;;;;;;;;;7388727;19;20334;-72
2023/01/27 02:41:07;;;;;;;17.38;8.07;;;;;;;;;;7394685;19;20001;-71
2023/01/27 02:43:32;;;;;;;24.08;8.13;;;;;;;;;;7387519;19;20008;-71
2023/01/27 02:45:58;;;;;;;20.70;7.82;;;;;;;;;;7388834;19;20054;-71
2023/01/27 02:48:23;;;;;;;32.25;8.90;;;;;;;;;;7388984;19;20013;-73
2023/01/27 02:50:48;;;;;;;34.50;9.70;;;;;;;;;;7392030;19;19998;-70
2023/01/27 02:53:13;;;;;;;20.02;8.68;;;;;;;;;;7391096;19;20003;-71
2023/01/27 02:55:39;;;;;;;28.38;8.98;;;;;;;;;;7390896;19;20126;-72
2023/01/27 02:58:04;;;;;;;24.55;9.18;;;;;;;;;;7388533;19;19991;-72
2023/01/27 03:00:29;;;;;;;23.15;9.48;;;;;;;;;;7388120;19;20094;-71
2023/01/27 03:02:55;;;;;;;27.67;9.13;;;;;;;;;;7387632;19;20003;-70
2023/01/27 03:05:20;;;;;;;23.40;8.70;;;;;;;;;;7389680;19;20003;-72
2023/01/27 03:07:45;;;;;;;25.38;10.07;;;;;;;;;;7388753;19;19999;-72
2023/01/27 03:10:11;;;;;;;20.45;8.30;;;;;;;;;;7389368;19;20074;-71
2023/01/27 03:12:36;;;;;;;20.92;8.23;;;;;;;;;;7388640;19;20006;-72
2023/01/27 03:20:29;;;;;;;22.08;9.07;;;;;;;;;;7389289;19;20472;-71
2023/01/27 03:22:55;;;;;;;17.52;8.30;;;;;;;;;;7386637;19;20003;-72
2023/01/27 03:25:20;;;;;;;19.60;8.57;;;;;;;;;;7388607;19;20097;-71
2023/01/27 03:27:45;;;;;;;20.02;8.57;;;;;;;;;;7387855;19;20002;-72
2023/01/27 03:30:11;;;;;;;17.38;7.65;;;;;;;;;;7388445;19;20334;-72
2023/01/27 03:32:37;;;;;;;20.60;8.82;;;;;;;;;;7385982;19;19998;-72
2023/01/27 03:35:03;;;;;;;20.38;8.73;;;;;;;;;;7388235;19;20013;-71
2023/01/27 03:48:33;;;;;;;15.18;6.43;;;;;;;;;;7388106;19;20013;-72
2023/01/27 03:51:00;;;;;;;16.17;7.10;;;;;;;;;;7389008;19;19995;-72
2023/01/27 03:53:25;;;;;;;13.10;6.15;;;;;;;;;;7386604;19;20006;-72
2023/01/27 03:55:50;;;;;;;20.20;8.18;;;;;;;;;;7386210;19;20003;-71
2023/01/27 03:58:18;;;;;;;15.32;7.07;;;;;;;;;;7384967;19;20014;-72
2023/01/27 04:00:46;;;;;;;11.00;5.93;;;;;;;;;;7387687;19;20472;-72
2023/01/27 04:08:43;;;;;;;11.70;6.30;;;;;;;;;;7387266;19;20084;-71
2023/01/27 04:13:52;;;;;;;14.13;6.80;;;;;;;;;;7387157;19;20009;-71
2023/01/27 04:16:18;;;;;;;11.00;5.70;;;;;;;;;;7387454;19;20071;-74
2023/01/27 04:18:45;;;;;;;10.73;5.05;;;;;;;;;;7386465;19;20002;-73
2023/01/27 04:21:12;;;;;;;11.48;6.13;;;;;;;;;;7387196;19;20033;-71
2023/01/27 04:23:37;;;;;;;10.07;5.00;;;;;;;;;;7384987;19;20013;-72
2023/01/27 04:26:03;;;;;;;16.80;6.68;;;;;;;;;;7387669;19;19999;-71
2023/01/27 04:28:28;;;;;;;12.85;5.47;;;;;;;;;;7385635;19;20005;-72
2023/01/27 04:30:54;;;;;;;10.93;5.63;;;;;;;;;;7389127;19;20054;-72
2023/01/27 04:33:19;;;;;;;15.15;7.00;;;;;;;;;;7389072;19;20009;-72
2023/01/27 04:35:45;;;;;;;18.48;6.60;;;;;;;;;;7386620;19;20071;-72
2023/01/27 04:38:12;;;;;;;10.40;5.97;;;;;;;;;;7385646;19;20418;-70
2023/01/27 04:40:37;;;;;;;11.55;5.68;;;;;;;;;;7386715;19;20076;-71
2023/01/27 04:43:03;;;;;;;12.10;6.85;;;;;;;;;;7384514;19;20027;-71
2023/01/27 04:45:28;;;;;;;15.93;6.53;;;;;;;;;;7386146;19;20009;-71
2023/01/27 04:47:54;;;;;;;10.48;6.15;;;;;;;;;;7385166;19;20317;-72
2023/01/27 04:50:19;;;;;;;12.88;5.93;;;;;;;;;;7386307;19;20007;-72
2023/01/27 04:52:44;;;;;;;10.98;5.55;;;;;;;;;;7385343;19;20076;-72
2023/01/27 04:55:10;;;;;;;14.20;6.30;;;;;;;;;;7386085;19;20121;-73
2023/01/27 04:57:36;;;;;;;10.48;5.75;;;;;;;;;;7386029;19;19999;-72
2023/01/27 05:00:04;;;;;;;11.90;5.28;;;;;;;;;;7386231;19;20488;-70
2023/01/27 05:02:30;;;;;;;10.70;5.80;;;;;;;;;;7385055;19;20011;-72
2023/01/27 05:04:55;;;;;;;11.48;6.03;;;;;;;;;;7383652;19;20003;-72
2023/01/27 05:07:20;;;;;;;14.20;6.70;;;;;;;;;;7385869;19;19999;-71
2023/01/27 05:09:46;;;;;;;13.73;6.32;;;;;;;;;;7385696;19;20437;-71
2023/01/27 05:12:11;;;;;;;12.43;6.80;;;;;;;;;;7385466;19;20011;-72
2023/01/27 05:14:36;;;;;;;15.07;5.82;;;;;;;;;;7387315;19;20015;-72
2023/01/27 05:17:02;;;;;;;13.48;6.60;;;;;;;;;;7393155;19;19999;-72
2023/01/27 05:19:27;;;;;;;13.80;6.88;;;;;;;;;;7388607;19;20465;-72
2023/01/27 05:21:52;;;;;;;11.70;5.68;;;;;;;;;;7392307;19;19995;-73
2023/01/27 05:24:18;;;;;;;13.25;6.07;;;;;;;;;;7392733;19;20368;-72
2023/01/27 05:26:43;;;;;;;10.82;5.55;;;;;;;;;;7392154;19;20058;-72
2023/01/27 05:29:08;;;;;;;10.77;5.72;;;;;;;;;;7389895;19;20050;-73
2023/01/27 05:31:34;;;;;;;11.15;5.78;;;;;;;;;;7393504;19;20080;-72
2023/01/27 05:34:00;;;;;;;13.25;7.03;;;;;;;;;;7391751;19;20395;-72
2023/01/27 05:36:27;;;;;;;5.43;3.38;;;;;;;;;;7394646;19;20005;-71
2023/01/27 05:38:54;;;;;;;9.68;5.60;;;;;;;;;;7392741;19;20368;-72
2023/01/27 05:41:20;;;;;;;13.40;6.38;;;;;;;;;;7393838;19;20002;-71
2023/01/27 05:43:50;;;;;;;12.68;6.20;;;;;;;;;;7390404;19;20001;-72
2023/01/27 05:46:18;;;;;;;14.02;6.47;;;;;;;;;;7394374;19;20704;-71
2023/01/27 05:48:49;;;;;;;10.15;4.95;;;;;;;;;;7393020;19;20010;-71
2023/01/27 05:51:16;;;;;;;9.60;5.60;;;;;;;;;;7395776;19;20349;-71
2023/01/27 05:53:42;;;;;;;11.05;5.55;;;;;;;;;;7395370;19;19990;-73
2023/01/27 05:56:09;;;;;;;12.80;5.43;;;;;;;;;;7390196;19;20029;-72
2023/01/27 05:58:35;;;;;;;10.98;5.80;;;;;;;;;;7390487;19;20011;-72
2023/01/27 06:01:09;;;;;;;10.07;5.05;;;;;;;;;;7394918;19;20351;-72
2023/01/27 06:03:35;;;;;;;9.35;4.88;;;;;;;;;;7392286;19;20066;-72
2023/01/27 06:06:01;;;;;;;10.82;6.07;;;;;;;;;;7392877;19;20011;-72
2023/01/27 06:08:26;;;;;;;7.78;4.13;;;;;;;;;;7390951;19;20001;-72
2023/01/27 06:10:53;;;;;;;16.70;5.72;;;;;;;;;;7382643;19;20069;-74
2023/01/27 06:13:22;;;;;;;10.32;5.72;;;;;;;;;;7392793;19;20007;-72
2023/01/27 06:15:48;;;;;;;12.50;6.05;;;;;;;;;;7365623;19;20412;-72
2023/01/27 06:18:15;;;;;;;11.07;5.15;;;;;;;;;;7391865;19;20033;-73
2023/01/27 06:20:41;;;;;;;9.88;5.60;;;;;;;;;;7386003;19;19998;-72
2023/01/27 06:23:08;;;;;;;10.45;5.82;;;;;;;;;;7389047;19;20415;-72
2023/01/27 06:25:42;;;;;;;15.30;5.63;;;;;;;;;;7393293;19;20369;-73
2023/01/27 06:28:08;;;;;;;14.50;5.85;;;;;;;;;;7391195;19;20002;-73
2023/01/27 06:30:35;;;;;;;11.68;5.57;;;;;;;;;;7393268;19;20019;-73
2023/01/27 06:33:01;;;;;;;13.10;6.05;;;;;;;;;;7392823;19;20074;-73
2023/01/27 06:35:27;;;;;;;12.30;6.35;;;;;;;;;;7393768;19;20002;-74
2023/01/27 06:37:52;;;;;;;11.25;5.95;;;;;;;;;;7393127;19;20381;-73
2023/01/27 06:40:18;;;;;;;9.40;5.90;;;;;;;;;;7392833;19;20005;-73
2023/01/27 06:42:43;;;;;;;12.55;5.95;;;;;;;;;;7390759;19;20002;-75
2023/01/27 06:45:12;;;;;;;11.30;6.18;;;;;;;;;;7394563;19;20009;-72
2023/01/27 06:47:39;;;;;;;13.63;5.75;;;;;;;;;;7392989;19;20015;-73
2023/01/27 06:50:06;;;;;;;9.90;5.90;;;;;;;;;;7392096;19;20508;-71
2023/01/27 06:52:31;;;;;;;10.25;5.75;;;;;;;;;;7391654;19;20029;-72
2023/01/27 06:54:57;;;;;;;11.02;6.07;;;;;;;;;;7393369;19;20280;-72
2023/01/27 06:57:22;;;;;;;10.85;5.55;;;;;;;;;;7391963;19;20068;-74
2023/01/27 06:59:47;;;;;;;9.48;4.38;;;;;;;;;;7390206;19;20129;-73
2023/01/27 07:02:13;;;;;;;9.32;5.55;;;;;;;;;;7389709;19;19999;-74
2023/01/27 07:04:38;;;;;;;10.23;5.43;;;;;;;;;;7391842;19;20004;-72
2023/01/27 07:07:04;;;;;;;10.32;5.88;;;;;;;;;;7391614;19;20019;-72
2023/01/27 07:09:29;;;;;;;9.50;5.60;;;;;;;;;;7389232;19;20001;-72
2023/01/27 07:11:55;;;;;;;10.23;5.43;;;;;;;;;;7389766;19;20024;-72
2023/01/27 07:14:20;;;;;;;11.25;5.72;;;;;;;;;;7390523;19;19994;-72
2023/01/27 07:16:46;;;;;;;13.82;5.78;;;;;;;;;;7391965;19;19994;-74
2023/01/27 07:19:11;;;;;;;9.43;5.35;;;;;;;;;;7384148;19;20732;-73
2023/01/27 07:21:37;;;;;;;11.98;5.35;;;;;;;;;;7388279;19;20125;-74
2023/01/27 07:24:03;;;;;;;17.52;6.70;;;;;;;;;;7384990;19;19999;-73
2023/01/27 07:26:28;;;;;;;11.02;5.80;;;;;;;;;;7387014;19;20045;-74
2023/01/27 07:28:55;;;;;;;11.57;6.30;;;;;;;;;;7385058;19;20464;-74
2023/01/27 07:31:20;;;;;;;11.60;5.75;;;;;;;;;;7389123;19;20460;-72
2023/01/27 07:33:45;;;;;;;11.25;6.13;;;;;;;;;;7385929;19;20055;-74
2023/01/27 07:36:11;;;;;;;9.23;5.35;;;;;;;;;;7389740;19;20134;-73
2023/01/27 07:38:37;;;;;;;11.25;6.45;;;;;;;;;;7389380;19;19994;-72
2023/01/27 07:41:04;;;;;;;13.57;6.63;;;;;;;;;;7392459;19;20002;-73
2023/01/27 07:43:30;;;;;;;8.55;4.70;;;;;;;;;;7389682;19;19991;-73
2023/01/27 07:45:56;;;;;;;11.93;6.43;;;;;;;;;;7389232;19;20045;-73
2023/01/27 07:48:22;;;;;;;11.15;5.72;;;;;;;;;;7391230;19;20005;-72
2023/01/27 07:50:47;;;;;;;8.90;5.50;;;;;;;;;;7389411;19;20033;-74
2023/01/27 07:53:12;;;;;;;11.32;5.95;;;;;;;;;;7389138;19;19999;-75
2023/01/27 07:55:38;;;;;;;11.50;6.47;;;;;;;;;;7391512;19;19999;-75
2023/01/27 07:58:03;;;;;;;10.07;5.90;;;;;;;;;;7388704;19;19994;-74
2023/01/27 08:00:29;;;;;;;11.93;5.68;;;;;;;;;;7388313;19;20010;-74
2023/01/27 08:02:55;;;;;;;14.98;5.22;;;;;;;;;;7388919;19;20010;-75
2023/01/27 08:05:24;;;;;;;9.90;5.60;;;;;;;;;;7390619;19;19998;-74
2023/01/27 08:07:50;;;;;;;7.43;4.40;;;;;;;;;;7386686;19;20007;-74
2023/01/27 08:10:17;;;;;;;9.57;5.13;;;;;;;;;;7385754;19;20422;-74
2023/01/27 08:12:43;;;;;;;6.85;3.47;;;;;;;;;;7388700;19;20010;-72
2023/01/27 08:15:09;;;;;;;10.88;4.65;;;;;;;;;;7390229;19;20345;-72
2023/01/27 08:17:34;;;;;;;11.57;6.25;;;;;;;;;;7390490;19;20468;-72
2023/01/27 08:20:00;;;;;;;11.45;6.30;;;;;;;;;;7385891;19;20001;-71
2023/01/27 08:22:27;;;;;;;10.25;5.47;;;;;;;;;;7386525;19;20015;-71
2023/01/27 08:24:52;;;;;;;7.28;3.78;;;;;;;;;;7384478;19;20727;-72
2023/01/27 08:27:33;;;;;;;10.43;5.90;;;;;;;;;;7381951;19;20007;-75
2023/01/27 08:30:02;;;;;;;11.23;6.23;;;;;;;;;;7385988;19;20051;-73
2023/01/27 08:32:28;;;;;;;10.55;6.15;;;;;;;;;;7384236;19;19999;-74
2023/01/27 08:35:01;;;;;;;8.10;4.43;;;;;;;;;;7386705;19;19998;-74
2023/01/27 08:37:27;;;;;;;10.48;5.55;;;;;;;;;;7385152;19;20098;-72
2023/01/27 08:39:55;;;;;;;8.63;5.40;;;;;;;;;;7388466;19;20094;-71
2023/01/27 08:42:50;;;;;;;4.95;2.95;;;;;;;;;;7385863;19;20088;-73
2023/01/27 08:45:19;;;;;;;10.02;5.10;;;;;;;;;;7385111;19;20036;-73
2023/01/27 08:47:48;;;;;;;9.93;5.45;;;;;;;;;;7387079;19;20346;-78
2023/01/27 08:50:16;;;;;;;10.52;5.07;;;;;;;;;;7390516;19;20021;-79
2023/01/27 08:53:03;;;;;;;8.70;4.97;;;;;;;;;;7390785;19;20006;-75
2023/01/27 08:55:30;;;;;;;9.30;5.30;;;;;;;;;;7391877;19;20006;-75
2023/01/27 08:57:55;;;;;;;7.38;3.97;;;;;;;;;;7393467;19;20022;-77
2023/01/27 09:00:34;;;;;;;10.88;5.35;;;;;;;;;;7394520;19;20006;-75
2023/01/27 09:02:59;;;;;;;12.52;5.07;;;;;;;;;;7389765;19;20006;-77
2023/01/27 09:05:24;;;;;;;7.53;4.00;;;;;;;;;;7394289;19;20044;-75
2023/01/27 09:07:50;;;;;;;9.38;5.05;;;;;;;;;;7393339;19;20007;-74
2023/01/27 09:10:16;;;;;;;10.90;4.80;;;;;;;;;;7393360;19;20002;-75
2023/01/27 09:12:42;;;;;;;10.20;5.80;;;;;;;;;;7388571;19;20036;-73
2023/01/27 09:15:08;;;;;;;7.40;3.97;;;;;;;;;;7392673;19;20017;-75
2023/01/27 09:17:33;;;;;;;8.00;5.05;;;;;;;;;;7393197;19;20003;-74
2023/01/27 09:19:58;;;;;;;10.00;5.05;;;;;;;;;;7394761;19;20014;-76
2023/01/27 09:22:24;;;;;;;10.23;5.22;;;;;;;;;;7392711;19;20006;-75
2023/01/27 09:24:49;;;;;;;8.57;4.65;;;;;;;;;;7391492;19;20009;-75
2023/01/27 09:27:15;;;;;;;7.40;4.05;;;;;;;;;;7392939;19;20034;-76
2023/01/27 09:29:41;;;;;;;6.57;3.45;;;;;;;;;;7393247;19;20005;-75
2023/01/27 09:32:07;;;;;;;10.20;4.45;;;;;;;;;;7392668;19;20520;-74
2023/01/27 09:34:33;;;;;;;7.50;4.70;;;;;;;;;;7392801;19;20520;-76
2023/01/27 09:37:08;;;;;;;11.95;3.90;;;;;;;;;;7393835;19;20002;-73
2023/01/27 09:39:37;;;;;;;6.38;3.80;;;;;;;;;;7391888;19;20418;-75
2023/01/27 09:42:40;;;;;;;8.70;4.30;;;;;;;;;;7393779;19;20098;-74
2023/01/27 09:45:16;;;;;;;6.70;3.63;;;;;;;;;;7394673;19;20003;-75
2023/01/27 09:47:41;;;;;;;8.35;4.45;;;;;;;;;;7389410;19;20011;-74
2023/01/27 09:50:51;;;;;;;8.52;4.57;;;;;;;;;;7392416;19;20489;-75
2023/01/27 09:53:55;;;;;;;8.30;4.47;;;;;;;;;;7390210;19;20302;-74
2023/01/27 09:56:38;;;;;;;7.55;3.78;;;;;;;;;;7388965;19;20062;-75
2023/01/27 09:59:13;;;;;;;8.57;3.78;;;;;;;;;;7395281;19;20011;-74
2023/01/27 10:02:11;;;;;;;7.72;4.38;;;;;;;;;;7399442;19;20006;-73
2023/01/27 10:04:55;;;;;;;9.25;4.82;;;;;;;;;;7406971;19;20011;-74
2023/01/27 10:07:54;;;;;;;5.50;3.00;;;;;;;;;;7395033;19;20007;-75
2023/01/27 10:10:41;;;;;;;8.27;4.95;;;;;;;;;;7392006;19;20005;-74
2023/01/27 10:13:46;;;;;;;7.40;3.92;;;;;;;;;;7392107;19;20015;-73
2023/01/27 10:16:20;;;;;;;7.47;4.18;;;;;;;;;;7392077;19;20037;-74
2023/01/27 10:19:16;;;;;;;9.98;4.60;;;;;;;;;;7390921;19;20013;-73
2023/01/27 10:21:49;;;;;;;7.10;4.15;;;;;;;;;;7389487;19;20009;-73
2023/01/27 10:24:47;;;;;;;7.47;3.83;;;;;;;;;;7390915;19;19998;-75
2023/01/27 10:27:23;;;;;;;9.10;4.90;;;;;;;;;;7392563;19;20788;-74
2023/01/27 10:29:58;;;;;;;7.63;4.30;;;;;;;;;;7389871;19;20027;-74
2023/01/27 10:32:23;;;;;;;7.65;4.47;;;;;;;;;;7391168;19;20023;-74
2023/01/27 10:35:02;;;;;;;7.75;4.35;;;;;;;;;;7391591;19;20015;-74
2023/01/27 10:37:46;;;;;;;7.90;4.55;;;;;;;;;;7392359;19;19998;-74
2023/01/27 10:40:18;;;;;;;4.55;2.33;;;;;;;;;;7390339;19;20418;-75
2023/01/27 10:43:00;;;;;;;10.40;4.13;;;;;;;;;;7387606;19;20370;-74
2023/01/27 10:45:59;;;;;;;8.52;4.53;;;;;;;;;;7392962;19;20010;-74
2023/01/27 10:48:50;;;;;;;6.88;3.88;;;;;;;;;;7385205;19;20088;-75
2023/01/27 10:51:28;;;;;;;8.27;4.60;;;;;;;;;;7391705;19;20082;-75
2023/01/27 10:54:01;;;;;;;8.05;4.55;;;;;;;;;;7388638;19;20012;-74
2023/01/27 10:56:37;;;;;;;5.78;3.50;;;;;;;;;;7388450;19;20019;-75
2023/01/27 10:59:33;;;;;;;7.93;4.45;;;;;;;;;;7389366;19;20009;-75
2023/01/27 11:02:51;;;;;;;7.05;3.70;;;;;;;;;;7366856;19;20524;-74
2023/01/27 11:05:26;;;;;;;3.65;2.35;;;;;;;;;;7387394;19;20443;-74
2023/01/27 11:08:00;;;;;;;6.82;4.07;;;;;;;;;;7384320;19;20006;-76
2023/01/27 11:10:34;;;;;;;9.23;4.72;;;;;;;;;;7387321;19;20006;-74
2023/01/27 11:13:01;;;;;;;7.47;3.83;;;;;;;;;;7388727;19;20407;-75
2023/01/27 11:15:32;;;;;;;3.72;2.50;;;;;;;;;;7391693;19;20027;-75
2023/01/27 11:18:08;;;;;;;7.07;3.88;;;;;;;;;;7388950;19;20118;-74
2023/01/27 11:20:39;;;;;;;5.95;3.40;;;;;;;;;;7390648;19;20475;-74
2023/01/27 11:23:18;;;;;;;6.70;3.33;;;;;;;;;;7386508;19;20003;-75
2023/01/27 11:25:52;;;;;;;7.20;4.07;;;;;;;;;;7387204;19;20002;-73
2023/01/27 11:28:41;;;;;;;5.82;3.05;;;;;;;;;;7386043;19;20107;-74
2023/01/27 11:31:34;;;;;;;5.60;3.10;;;;;;;;;;7383663;19;20007;-74
2023/01/27 11:34:12;;;;;;;6.72;3.80;;;;;;;;;;7381584;19;20074;-73
2023/01/27 11:36:38;;;;;;;5.47;2.88;;;;;;;;;;7385143;19;20034;-72
2023/01/27 11:39:03;;;;;;;7.05;4.22;;;;;;;;;;7387308;19;19999;-74
2023/01/27 11:41:32;;;;;;;6.15;3.38;;;;;;;;;;7390421;19;20002;-74
2023/01/27 11:44:03;;;;;;;5.70;3.20;;;;;;;;;;7385711;19;20003;-74
2023/01/27 11:46:30;;;;;;;6.38;2.75;;;;;;;;;;7389958;19;20010;-75
2023/01/27 11:48:57;;;;;;;5.22;2.78;;;;;;;;;;7388982;19;20114;-74
2023/01/27 11:51:27;;;;;;;4.43;2.08;;;;;;;;;;7388877;19;20002;-74
2023/01/27 11:54:10;;;;;;;4.32;2.63;;;;;;;;;;7387816;19;20007;-73
2023/01/27 11:56:36;;;;;;;3.47;2.05;;;;;;;;;;7387597;19;20002;-73
2023/01/27 11:59:05;;;;;;;3.45;1.60;;;;;;;;;;7388880;19;20824;-73
2023/01/27 12:01:51;;;;;;;3.22;1.95;;;;;;;;;;7390425;19;20086;-75
2023/01/27 12:05:00;;;;;;;3.92;2.20;;;;;;;;;;7386678;19;20102;-72
2023/01/27 12:07:40;;;;;;;3.85;2.42;;;;;;;;;;7386474;19;20432;-73
2023/01/27 12:10:28;;;;;;;4.35;2.38;;;;;;;;;;7390195;19;20355;-73
2023/01/27 12:12:54;;;;;;;6.15;2.67;;;;;;;;;;7385671;19;20010;-73
2023/01/27 12:15:22;;;;;;;4.75;2.25;;;;;;;;;;7384939;19;20033;-73
2023/01/27 12:17:55;;;;;;;5.57;2.38;;;;;;;;;;7384210;19;20498;-73
2023/01/27 12:20:20;;;;;;;5.13;2.47;;;;;;;;;;7385715;19;20011;-73
2023/01/27 12:22:48;;;;;;;6.22;2.97;;;;;;;;;;7386807;19;19995;-73
2023/01/27 12:25:31;;;;;;;8.35;2.80;;;;;;;;;;7385509;19;19995;-74
2023/01/27 12:28:02;;;;;;;5.25;2.67;;;;;;;;;;7389126;19;20346;-74
2023/01/27 12:30:37;;;;;;;3.88;2.25;;;;;;;;;;7389432;19;20038;-73
2023/01/27 12:33:12;;;;;;;3.75;2.13;;;;;;;;;;7387305;19;20006;-75
2023/01/27 12:35:38;;;;;;;5.72;2.70;;;;;;;;;;7388155;19;20542;-76
2023/01/27 12:38:15;;;;;;;4.82;2.60;;;;;;;;;;7388660;19;19998;-73
2023/01/27 12:40:43;;;;;;;3.97;2.20;;;;;;;;;;7386092;19;20137;-75
2023/01/27 12:43:12;;;;;;;3.60;2.05;;;;;;;;;;7385728;19;20006;-74
2023/01/27 12:45:38;;;;;;;4.68;2.20;;;;;;;;;;7389021;19;20005;-73
2023/01/27 12:48:13;;;;;;;5.18;2.17;;;;;;;;;;7388094;19;20341;-75
2023/01/27 12:50:52;;;;;;;4.20;2.42;;;;;;;;;;7385454;19;19998;-74
2023/01/27 12:53:26;;;;;;;5.07;2.70;;;;;;;;;;7386845;19;19999;-74
2023/01/27 12:56:19;;;;;;;4.20;2.40;;;;;;;;;;7386497;19;20048;-74
2023/01/27 12:58:46;;;;;;;5.53;2.53;;;;;;;;;;7385354;19;20778;-73
2023/01/27 13:01:23;;;;;;;3.40;2.20;;;;;;;;;;7386823;19;20014;-73
2023/01/27 13:03:55;;;;;;;3.20;2.00;;;;;;;;;;7385982;19;20469;-74
2023/01/27 13:06:30;;;;;;;3.15;2.13;;;;;;;;;;7385045;19;20018;-74
2023/01/27 13:08:56;;;;;;;3.90;2.10;;;;;;;;;;7384409;19;20005;-72
2023/01/27 13:11:37;;;;;;;4.55;2.33;;;;;;;;;;7384298;19;20013;-73
2023/01/27 13:14:07;;;;;;;4.55;2.53;;;;;;;;;;7388256;19;19994;-73
2023/01/27 13:16:32;;;;;;;5.20;2.33;;;;;;;;;;7385297;19;19998;-74
2023/01/27 13:18:59;;;;;;;4.40;2.08;;;;;;;;;;7383801;19;20335;-75
2023/01/27 13:21:36;;;;;;;4.28;2.22;;;;;;;;;;7386331;19;20017;-74
2023/01/27 13:24:14;;;;;;;2.92;1.67;;;;;;;;;;7383476;19;20452;-74
2023/01/27 13:26:40;;;;;;;3.25;1.70;;;;;;;;;;7383304;19;19998;-73
2023/01/27 13:29:14;;;;;;;3.97;1.90;;;;;;;;;;7384447;19;20384;-74
2023/01/27 13:32:08;;;;;;;2.40;1.73;;;;;;;;;;7385940;19;19995;-75
2023/01/27 13:34:47;;;;;;;3.50;1.88;;;;;;;;;;7385953;19;19994;-75
2023/01/27 13:37:22;;;;;;;2.33;1.50;;;;;;;;;;7394031;19;19994;-75
2023/01/27 13:40:06;;;;;;;4.50;2.00;;;;;;;;;;7393751;19;19998;-74
2023/01/27 13:42:42;;;;;;;1.55;1.25;;;;;;;;;;7392700;19;19990;-74
2023/01/27 13:45:19;;;;;;;2.38;1.70;;;;;;;;;;7394474;19;20029;-75
2023/01/27 13:47:59;;;;;;;1.58;1.20;;;;;;;;;;7392798;19;20133;-75
2023/01/27 13:50:41;;;;;;;2.70;1.30;;;;;;;;;;7388670;19;20068;-75
2023/01/27 13:53:10;;;;;;;2.35;1.20;;;;;;;;;;7391951;19;20006;-74
2023/01/27 13:55:58;;;;;;;1.42;1.05;;;;;;;;;;7393856;19;20006;-74
2023/01/27 13:58:35;;;;;;;2.45;1.40;;;;;;;;;;7390330;19;20007;-73
2023/01/27 14:01:03;;;;;;;1.92;1.52;;;;;;;;;;7391780;19;20002;-73
2023/01/27 14:03:31;;;;;;;6.10;2.00;;;;;;;;;;7391386;19;20028;-73
2023/01/27 14:06:19;;;;;;;2.20;1.50;;;;;;;;;;7393086;19;20518;-73
2023/01/27 14:08:57;;;;;;;2.22;1.45;;;;;;;;;;7392151;19;20107;-74
2023/01/27 14:11:38;;;;;;;1.80;1.25;;;;;;;;;;7391472;19;19994;-74
2023/01/27 14:14:40;;;;;;;8.40;1.33;;;;;;;;;;7393721;19;20006;-74
2023/01/27 14:17:37;;;;;;;1.17;1.00;;;;;;;;;;7390910;19;20503;-75
2023/01/27 14:20:23;;;;;;;3.13;1.70;;;;;;;;;;7393827;19;20003;-73
2023/01/27 14:22:48;;;;;;;2.28;1.48;;;;;;;;;;7389725;19;20460;-74
2023/01/27 14:25:31;;;;;;;4.88;1.50;;;;;;;;;;7391238;19;20010;-74
2023/01/27 14:28:46;;;;;;;2.22;1.20;;;;;;;;;;7392436;19;20454;-74
2023/01/27 14:31:16;;;;;;;1.77;1.30;;;;;;;;;;7390118;19;20003;-74
2023/01/27 14:33:53;;;;;;;1.70;1.23;;;;;;;;;;7391005;19;20326;-74
2023/01/27 14:36:26;;;;;;;2.10;1.48;;;;;;;;;;7392293;19;19994;-74
2023/01/27 14:38:57;;;;;;;1.60;1.50;;;;;;;;;;7390813;19;20003;-74
2023/01/27 14:41:55;;;;;;;2.92;1.67;;;;;;;;;;7389271;19;20003;-74
2023/01/27 14:44:36;;;;;;;4.15;1.63;;;;;;;;;;7377930;19;20017;-72
2023/01/27 14:47:18;;;;;;;1.25;1.02;;;;;;;;;;7381153;19;20468;-72
2023/01/27 14:49:57;;;;;;;;;;;;;;;;;;7382367;19;20389;-72
2023/01/27 14:52:35;;;;;;;2.25;1.65;;;;;;;;;;7383897;19;19911;-72
2023/01/27 14:55:29;;;;;;;2.63;1.45;;;;;;;;;;7381679;19;20021;-71
2023/01/27 14:58:29;;;;;;;2.08;1.60;;;;;;;;;;7383222;19;20475;-71
2023/01/27 15:01:19;;;;;;;5.68;1.70;;;;;;;;;;7382759;19;20019;-73
2023/01/27 15:04:04;;;;;;;2.42;1.55;;;;;;;;;;7383699;19;19995;-72
2023/01/27 15:06:36;;;;;;;2.22;0.75;;;;;;;;;;7385621;19;20010;-73
2023/01/27 15:09:18;;;;;;;2.38;1.58;;;;;;;;;;7384642;19;20009;-72
2023/01/27 15:12:20;;;;;;;1.67;1.20;;;;;;;;;;7385860;19;20470;-73
2023/01/27 15:15:07;;;;;;;5.30;2.17;;;;;;;;;;7383645;19;20104;-72
2023/01/27 15:17:58;;;;;;;2.28;0.98;;;;;;;;;;7384111;19;20019;-71
2023/01/27 15:20:35;;;;;;;3.03;1.48;;;;;;;;;;7383584;19;20027;-72
2023/01/27 15:23:33;;;;;;;2.75;1.40;;;;;;;;;;7384875;19;20406;-73
2023/01/27 15:26:05;;;;;;;1.50;1.23;;;;;;;;;;7383706;19;20032;-71
2023/01/27 15:28:32;;;;;;;1.05;0.98;;;;;;;;;;7383688;19;20002;-71
2023/01/27 15:31:13;;;;;;;2.50;1.45;;;;;;;;;;7383503;19;20058;-74
2023/01/27 15:33:47;;;;;;;;;;;;;;;;;;7385190;19;19999;-73
2023/01/27 15:36:29;;;;;;;5.07;1.50;;;;;;;;;;7384207;19;19903;-73
2023/01/27 15:38:58;;;;;;;4.40;1.45;;;;;;;;;;7383220;19;20334;-74